createdAt,value
2018-08-22T00:01:55.890Z,26.00
2018-08-22T00:04:24.386Z,25.90
2018-08-22T00:06:52.879Z,25.90
2018-08-22T00:09:21.362Z,25.90
2018-08-22T00:11:49.850Z,25.90
2018-08-22T00:14:18.362Z,25.90
2018-08-22T00:16:46.856Z,25.90
2018-08-22T00:19:15.553Z,25.80
2018-08-22T00:21:44.060Z,25.80
2018-08-22T00:24:12.567Z,25.80
2018-08-22T00:26:41.275Z,25.80
2018-08-22T00:29:09.792Z,25.70
2018-08-22T00:31:38.401Z,25.70
2018-08-22T00:34:06.965Z,25.70
2018-08-22T00:36:35.457Z,25.60
2018-08-22T00:39:05.185Z,25.60
2018-08-22T00:41:33.686Z,25.60
2018-08-22T00:44:02.428Z,25.60
2018-08-22T00:46:30.933Z,25.60
2018-08-22T00:48:59.401Z,25.50
2018-08-22T00:51:27.899Z,25.50
2018-08-22T00:53:56.382Z,25.40
2018-08-22T00:56:24.895Z,25.40
2018-08-22T00:58:53.375Z,25.40
2018-08-22T01:01:21.869Z,25.30
2018-08-22T01:03:50.345Z,25.30
2018-08-22T01:06:18.857Z,25.30
2018-08-22T01:08:47.463Z,25.30
2018-08-22T01:11:16.061Z,25.30
2018-08-22T01:13:44.546Z,25.30
2018-08-22T01:16:13.061Z,25.20
2018-08-22T01:18:41.522Z,25.10
2018-08-22T01:21:10.034Z,25.10
2018-08-22T01:23:38.542Z,25.10
2018-08-22T01:26:07.103Z,25.10
2018-08-22T01:28:35.578Z,25.00
2018-08-22T01:31:04.732Z,25.00
2018-08-22T01:33:33.307Z,25.00
2018-08-22T01:36:01.818Z,25.00
2018-08-22T01:38:30.295Z,25.00
2018-08-22T01:40:58.802Z,24.90
2018-08-22T01:43:27.284Z,24.90
2018-08-22T01:45:55.781Z,24.90
2018-08-22T01:48:24.269Z,24.90
2018-08-22T01:50:52.762Z,24.80
2018-08-22T01:53:21.232Z,24.80
2018-08-22T01:55:49.721Z,24.70
2018-08-22T01:58:18.239Z,24.70
2018-08-22T02:00:46.750Z,24.70
2018-08-22T02:03:15.328Z,24.70
2018-08-22T02:05:43.844Z,24.70
2018-08-22T02:08:12.315Z,24.70
2018-08-22T02:10:40.829Z,24.60
2018-08-22T02:13:09.326Z,24.60
2018-08-22T02:15:37.831Z,24.60
2018-08-22T02:18:06.324Z,24.50
2018-08-22T02:20:34.799Z,24.50
2018-08-22T02:23:03.302Z,24.50
2018-08-22T02:25:31.838Z,24.50
2018-08-22T02:28:00.386Z,24.50
2018-08-22T02:30:28.988Z,24.40
2018-08-22T02:32:57.546Z,24.40
2018-08-22T02:35:26.063Z,24.40
2018-08-22T02:37:54.610Z,24.40
2018-08-22T02:40:23.138Z,24.30
2018-08-22T02:42:51.690Z,24.30
2018-08-22T02:45:20.196Z,24.30
2018-08-22T02:47:48.730Z,24.30
2018-08-22T02:50:17.272Z,24.20
2018-08-22T02:52:45.843Z,24.20
2018-08-22T02:55:14.341Z,24.20
2018-08-22T02:57:42.881Z,24.20
2018-08-22T03:00:11.459Z,24.20
2018-08-22T03:02:39.995Z,24.20
2018-08-22T03:05:08.520Z,24.10
2018-08-22T03:07:37.074Z,24.10
2018-08-22T03:10:05.618Z,24.10
2018-08-22T03:12:34.167Z,24.10
2018-08-22T03:15:02.682Z,24.10
2018-08-22T03:17:31.222Z,24.00
2018-08-22T03:19:59.744Z,24.00
2018-08-22T03:22:28.285Z,24.00
2018-08-22T03:24:56.789Z,24.00
2018-08-22T03:27:25.303Z,24.00
2018-08-22T03:29:53.774Z,23.90
2018-08-22T03:32:22.264Z,23.90
2018-08-22T03:34:50.751Z,23.90
2018-08-22T03:37:19.259Z,23.90
2018-08-22T03:39:47.741Z,23.90
2018-08-22T03:42:16.234Z,23.80
2018-08-22T03:44:44.713Z,23.80
2018-08-22T03:47:13.209Z,23.80
2018-08-22T03:49:41.682Z,23.80
2018-08-22T03:52:10.179Z,23.80
2018-08-22T03:54:38.793Z,23.70
2018-08-22T03:57:07.314Z,23.70
2018-08-22T03:59:35.825Z,23.70
2018-08-22T04:02:04.334Z,23.70
2018-08-22T04:04:32.822Z,23.60
2018-08-22T04:07:01.315Z,23.60
2018-08-22T04:09:29.781Z,23.60
2018-08-22T04:11:58.301Z,23.60
2018-08-22T04:14:26.770Z,23.60
2018-08-22T04:16:55.334Z,23.60
2018-08-22T04:19:23.845Z,23.60
2018-08-22T04:21:52.326Z,23.50
2018-08-22T04:24:21.049Z,23.50
2018-08-22T04:26:49.531Z,23.50
2018-08-22T04:29:18.053Z,23.50
2018-08-22T04:31:46.519Z,23.50
2018-08-22T04:34:15.039Z,23.40
2018-08-22T04:36:43.615Z,23.40
2018-08-22T04:39:12.118Z,23.40
2018-08-22T04:41:40.606Z,23.40
2018-08-22T04:44:09.121Z,23.40
2018-08-22T04:46:37.592Z,23.30
2018-08-22T04:49:06.109Z,23.30
2018-08-22T04:51:34.594Z,23.30
2018-08-22T04:54:03.085Z,23.30
2018-08-22T04:56:31.557Z,23.30
2018-08-22T04:59:00.061Z,23.20
2018-08-22T05:01:28.542Z,23.20
2018-08-22T05:03:57.038Z,23.20
2018-08-22T05:06:25.539Z,23.20
2018-08-22T05:08:54.064Z,23.20
2018-08-22T05:11:22.544Z,23.20
2018-08-22T05:13:51.067Z,23.20
2018-08-22T05:16:19.555Z,23.20
2018-08-22T05:18:48.063Z,23.10
2018-08-22T05:21:16.591Z,23.10
2018-08-22T05:23:45.100Z,23.10
2018-08-22T05:26:13.630Z,23.10
2018-08-22T05:28:42.317Z,23.10
2018-08-22T05:31:10.801Z,23.10
2018-08-22T05:33:39.323Z,23.10
2018-08-22T05:36:07.842Z,23.10
2018-08-22T05:38:36.382Z,23.00
2018-08-22T05:41:04.953Z,23.10
2018-08-22T05:43:33.494Z,23.00
2018-08-22T05:46:01.992Z,23.00
2018-08-22T05:48:30.505Z,23.10
2018-08-22T05:50:59.001Z,23.00
2018-08-22T05:53:27.520Z,23.00
2018-08-22T05:55:56.004Z,23.00
2018-08-22T05:58:24.522Z,23.00
2018-08-22T06:00:53.020Z,23.10
2018-08-22T06:03:21.595Z,23.10
2018-08-22T06:05:50.028Z,23.10
2018-08-22T06:08:18.713Z,23.00
2018-08-22T06:10:47.193Z,23.00
2018-08-22T06:13:15.667Z,23.00
2018-08-22T06:15:44.431Z,23.10
2018-08-22T06:18:12.895Z,23.10
2018-08-22T06:20:41.400Z,23.10
2018-08-22T06:23:09.880Z,23.10
2018-08-22T06:25:38.474Z,23.10
2018-08-22T06:28:06.917Z,23.10
2018-08-22T06:30:35.438Z,23.10
2018-08-22T06:33:03.980Z,23.10
2018-08-22T06:35:32.520Z,23.10
2018-08-22T06:38:00.998Z,23.10
2018-08-22T06:40:29.505Z,23.10
2018-08-22T06:42:58.043Z,23.10
2018-08-22T06:45:26.551Z,23.10
2018-08-22T06:47:55.031Z,23.10
2018-08-22T06:50:25.202Z,23.10
2018-08-22T06:52:53.885Z,23.10
2018-08-22T06:55:24.198Z,23.10
2018-08-22T06:57:52.684Z,23.10
2018-08-22T07:00:21.186Z,23.10
2018-08-22T07:02:49.654Z,23.10
2018-08-22T07:05:18.174Z,23.10
2018-08-22T07:07:46.654Z,23.10
2018-08-22T07:10:15.168Z,23.10
2018-08-22T07:12:43.922Z,23.10
2018-08-22T07:15:12.426Z,23.10
2018-08-22T07:17:40.884Z,23.10
2018-08-22T07:20:09.422Z,23.10
2018-08-22T07:22:37.895Z,23.10
2018-08-22T07:25:06.493Z,23.10
2018-08-22T07:27:35.060Z,23.10
2018-08-22T07:30:03.947Z,23.10
2018-08-22T07:32:32.481Z,23.10
2018-08-22T07:35:01.035Z,23.10
2018-08-22T07:37:30.038Z,23.10
2018-08-22T07:39:58.597Z,23.10
2018-08-22T07:42:27.139Z,23.10
2018-08-22T07:44:55.766Z,23.10
2018-08-22T07:47:24.428Z,23.10
2018-08-22T07:49:53.056Z,23.00
2018-08-22T07:52:22.293Z,22.90
2018-08-22T07:54:50.846Z,22.90
2018-08-22T07:57:22.538Z,22.90
2018-08-22T07:59:51.984Z,22.90
2018-08-22T08:02:20.531Z,22.90
2018-08-22T08:04:49.132Z,22.80
2018-08-22T08:07:17.830Z,22.80
2018-08-22T08:09:46.409Z,22.80
2018-08-22T08:12:14.952Z,22.80
2018-08-22T08:14:48.880Z,22.90
2018-08-22T08:17:17.513Z,22.90
2018-08-22T08:19:45.993Z,22.90
2018-08-22T08:22:14.525Z,22.90
2018-08-22T08:24:43.058Z,22.90
2018-08-22T08:27:11.582Z,22.90
2018-08-22T08:29:40.126Z,22.90
2018-08-22T08:32:08.641Z,22.90
2018-08-22T08:34:37.148Z,23.00
2018-08-22T08:37:05.755Z,23.00
2018-08-22T08:39:34.255Z,23.00
2018-08-22T08:42:02.784Z,23.00
2018-08-22T08:44:31.266Z,23.00
2018-08-22T08:46:59.777Z,23.00
2018-08-22T08:49:28.275Z,23.00
2018-08-22T08:52:02.518Z,23.00
2018-08-22T08:54:31.257Z,23.10
2018-08-22T08:56:59.792Z,23.10
2018-08-22T08:59:28.315Z,23.10
2018-08-22T09:01:56.845Z,23.10
2018-08-22T09:04:25.379Z,23.10
2018-08-22T09:06:53.863Z,23.20
2018-08-22T09:09:22.446Z,23.20
2018-08-22T09:11:57.998Z,23.20
2018-08-22T09:14:26.801Z,23.20
2018-08-22T09:16:55.917Z,23.20
2018-08-22T09:19:24.909Z,23.20
2018-08-22T09:21:53.558Z,23.30
2018-08-22T09:24:22.169Z,23.30
2018-08-22T09:26:50.730Z,23.30
2018-08-22T09:29:19.265Z,23.30
2018-08-22T09:31:47.926Z,23.40
2018-08-22T09:34:16.470Z,23.40
2018-08-22T09:36:45.053Z,23.40
2018-08-22T09:39:14.313Z,23.50
2018-08-22T09:41:43.280Z,23.60
2018-08-22T09:44:12.344Z,23.60
2018-08-22T09:46:41.301Z,23.70
2018-08-22T09:49:10.274Z,26.10
2018-08-22T09:51:38.926Z,27.50
2018-08-22T09:54:07.459Z,28.20
2018-08-22T09:56:36.101Z,28.50
2018-08-22T09:59:04.709Z,28.80
2018-08-22T10:01:39.107Z,28.90
2018-08-22T10:04:07.629Z,28.90
2018-08-22T10:06:41.311Z,29.00
2018-08-22T10:09:12.338Z,28.90
2018-08-22T10:11:40.921Z,29.10
2018-08-22T10:14:09.504Z,29.20
2018-08-22T10:16:38.124Z,29.30
2018-08-22T10:19:06.661Z,29.40
2018-08-22T10:21:35.438Z,29.50
2018-08-22T10:24:04.040Z,29.60
2018-08-22T10:26:32.701Z,29.50
2018-08-22T10:29:01.214Z,29.60
2018-08-22T10:31:29.737Z,29.60
2018-08-22T10:33:58.306Z,29.60
2018-08-22T10:36:26.819Z,29.60
2018-08-22T10:38:55.388Z,29.90
2018-08-22T10:41:23.904Z,30.00
2018-08-22T10:43:52.459Z,30.20
2018-08-22T10:46:20.979Z,30.30
2018-08-22T10:48:49.534Z,30.30
2018-08-22T10:51:18.100Z,30.30
2018-08-22T10:53:46.656Z,30.50
2018-08-22T10:56:15.217Z,30.40
2018-08-22T10:58:43.924Z,30.40
2018-08-22T11:01:13.009Z,30.40
2018-08-22T11:03:41.688Z,30.50
2018-08-22T11:06:10.858Z,30.60
2018-08-22T11:08:39.426Z,30.60
2018-08-22T11:11:07.948Z,30.50
2018-08-22T11:13:36.493Z,30.70
2018-08-22T11:16:05.070Z,30.80
2018-08-22T11:18:33.587Z,31.00
2018-08-22T11:21:13.194Z,31.10
2018-08-22T11:23:53.014Z,31.00
2018-08-22T11:26:32.756Z,31.20
2018-08-22T11:29:12.603Z,31.10
2018-08-22T11:31:52.430Z,31.20
2018-08-22T11:34:32.319Z,31.40
2018-08-22T11:37:04.766Z,31.50
2018-08-22T11:39:33.576Z,31.50
2018-08-22T11:42:02.550Z,31.70
2018-08-22T11:44:31.365Z,31.70
2018-08-22T11:47:00.544Z,31.70
2018-08-22T11:49:29.861Z,31.80
2018-08-22T11:51:58.863Z,31.80
2018-08-22T11:54:27.739Z,31.80
2018-08-22T11:56:56.230Z,31.80
2018-08-22T11:59:24.750Z,31.90
2018-08-22T12:01:53.314Z,31.90
2018-08-22T12:04:22.078Z,31.90
2018-08-22T12:06:51.153Z,31.80
2018-08-22T12:09:19.665Z,31.80
2018-08-22T12:11:48.236Z,31.90
2018-08-22T12:14:16.749Z,31.90
2018-08-22T12:16:45.234Z,31.90
2018-08-22T12:19:13.766Z,31.80
2018-08-22T12:21:42.761Z,31.80
2018-08-22T12:24:11.418Z,31.80
2018-08-22T12:26:39.970Z,31.80
2018-08-22T12:29:08.505Z,31.70
2018-08-22T12:31:37.116Z,31.60
2018-08-22T12:34:05.665Z,31.60
2018-08-22T12:36:34.232Z,31.40
2018-08-22T12:39:03.328Z,31.20
2018-08-22T12:41:31.890Z,31.00
2018-08-22T12:44:00.409Z,31.00
2018-08-22T12:46:28.949Z,31.00
2018-08-22T12:48:57.479Z,31.00
2018-08-22T12:51:26.014Z,31.00
2018-08-22T12:53:54.546Z,31.00
2018-08-22T12:56:23.181Z,31.00
2018-08-22T12:58:51.770Z,30.80
2018-08-22T13:01:20.325Z,30.70
2018-08-22T13:03:48.850Z,30.70
2018-08-22T13:06:17.394Z,30.60
2018-08-22T13:08:45.990Z,30.70
2018-08-22T13:11:14.576Z,30.80
2018-08-22T13:13:43.097Z,30.90
2018-08-22T13:16:11.649Z,30.90
2018-08-22T13:18:40.179Z,30.90
2018-08-22T13:21:08.734Z,30.90
2018-08-22T13:23:37.337Z,30.90
2018-08-22T13:26:05.883Z,30.90
2018-08-22T13:28:34.363Z,30.90
2018-08-22T13:31:03.287Z,30.90
2018-08-22T13:33:31.807Z,30.90
2018-08-22T13:36:00.318Z,30.90
2018-08-22T13:38:28.833Z,30.90
2018-08-22T13:40:57.377Z,30.90
2018-08-22T13:43:26.053Z,30.90
2018-08-22T13:45:54.555Z,30.90
2018-08-22T13:48:23.941Z,30.80
2018-08-22T13:50:52.444Z,30.80
2018-08-22T13:53:21.012Z,30.80
2018-08-22T13:55:49.965Z,30.80
2018-08-22T13:58:18.470Z,30.90
2018-08-22T14:00:46.986Z,30.80
2018-08-22T14:03:15.938Z,30.80
2018-08-22T14:05:44.591Z,30.80
2018-08-22T14:08:13.113Z,30.80
2018-08-22T14:10:41.624Z,30.80
2018-08-22T14:13:10.094Z,30.80
2018-08-22T14:15:38.631Z,30.80
2018-08-22T14:18:07.352Z,30.80
2018-08-22T14:20:35.957Z,30.80
2018-08-22T14:23:04.447Z,30.80
2018-08-22T14:25:33.127Z,30.80
2018-08-22T14:28:01.655Z,30.80
2018-08-22T14:30:30.135Z,30.80
2018-08-22T14:32:58.630Z,30.80
2018-08-22T14:35:27.181Z,30.80
2018-08-22T14:37:55.759Z,30.70
2018-08-22T14:40:24.294Z,30.70
2018-08-22T14:42:56.328Z,30.80
2018-08-22T14:45:28.367Z,30.70
2018-08-22T14:47:59.623Z,30.70
2018-08-22T14:50:31.394Z,30.80
2018-08-22T14:53:00.043Z,30.70
2018-08-22T14:55:28.587Z,30.80
2018-08-22T14:57:57.140Z,30.70
2018-08-22T15:00:25.873Z,30.80
2018-08-22T15:02:54.623Z,30.80
2018-08-22T15:05:23.588Z,30.70
2018-08-22T15:07:53.058Z,30.70
2018-08-22T15:10:22.541Z,30.70
2018-08-22T15:12:51.259Z,30.70
2018-08-22T15:15:19.762Z,30.70
2018-08-22T15:17:48.317Z,30.70
2018-08-22T15:20:16.880Z,30.70
2018-08-22T15:22:45.432Z,30.70
2018-08-22T15:25:13.973Z,30.70
2018-08-22T15:27:42.559Z,30.60
2018-08-22T15:30:11.218Z,30.60
2018-08-22T15:32:39.766Z,30.60
2018-08-22T15:35:08.379Z,30.60
2018-08-22T15:37:36.936Z,30.60
2018-08-22T15:40:06.226Z,30.60
2018-08-22T15:42:34.778Z,30.60
2018-08-22T15:45:03.495Z,30.60
2018-08-22T15:47:32.051Z,30.60
2018-08-22T15:50:00.575Z,30.60
2018-08-22T15:52:29.192Z,30.50
2018-08-22T15:55:09.090Z,30.50
2018-08-22T15:57:54.386Z,30.50
2018-08-22T16:00:33.390Z,30.50
2018-08-22T16:03:03.442Z,30.50
2018-08-22T16:05:32.504Z,30.50
2018-08-22T16:08:01.218Z,30.50
2018-08-22T16:10:30.336Z,30.40
2018-08-22T16:12:58.895Z,30.40
2018-08-22T16:15:28.083Z,30.40
2018-08-22T16:17:58.040Z,30.40
2018-08-22T16:20:27.624Z,30.40
2018-08-22T16:22:56.169Z,30.40
2018-08-22T16:25:34.593Z,30.40
2018-08-22T16:28:03.159Z,30.30
2018-08-22T16:30:31.678Z,30.30
2018-08-22T16:33:00.189Z,30.30
2018-08-22T16:35:28.658Z,30.30
2018-08-22T16:38:06.352Z,30.30
2018-08-22T16:40:39.309Z,30.30
2018-08-22T16:43:07.805Z,30.30
2018-08-22T16:45:44.378Z,30.30
2018-08-22T16:48:17.106Z,30.20
2018-08-22T16:50:45.875Z,30.20
2018-08-22T16:53:14.381Z,30.20
2018-08-22T16:55:42.870Z,30.20
2018-08-22T16:58:11.381Z,30.20
2018-08-22T17:00:44.574Z,30.20
2018-08-22T17:03:13.172Z,30.20
2018-08-22T17:05:41.670Z,30.20
2018-08-22T17:08:10.194Z,30.10
2018-08-22T17:10:56.726Z,30.10
2018-08-22T17:13:35.537Z,30.10
2018-08-22T17:16:04.122Z,30.10
2018-08-22T17:18:32.638Z,30.10
2018-08-22T17:21:01.134Z,30.10
2018-08-22T17:23:29.637Z,30.10
2018-08-22T17:25:58.152Z,30.00
2018-08-22T17:28:34.743Z,30.00
2018-08-22T17:31:03.767Z,30.00
2018-08-22T17:33:37.514Z,30.00
2018-08-22T17:36:07.357Z,29.90
2018-08-22T17:38:35.870Z,29.90
2018-08-22T17:41:04.402Z,29.90
2018-08-22T17:43:47.057Z,29.90
2018-08-22T17:46:15.657Z,29.90
2018-08-22T17:48:44.151Z,29.90
2018-08-22T17:51:12.639Z,29.90
2018-08-22T17:53:41.151Z,29.80
2018-08-22T17:56:09.645Z,29.80
2018-08-22T17:58:38.230Z,29.80
2018-08-22T18:01:06.735Z,29.80
2018-08-22T18:03:35.241Z,29.80
2018-08-22T18:06:03.782Z,29.70
2018-08-22T18:08:33.204Z,29.70
2018-08-22T18:11:01.786Z,29.70
2018-08-22T18:13:30.391Z,29.70
2018-08-22T18:15:58.877Z,29.70
2018-08-22T18:18:27.380Z,29.60
2018-08-22T18:20:58.865Z,29.60
2018-08-22T18:23:27.346Z,29.60
2018-08-22T18:25:59.142Z,29.60
2018-08-22T18:28:28.099Z,29.50
2018-08-22T18:30:56.625Z,29.50
2018-08-22T18:33:25.114Z,29.50
2018-08-22T18:35:53.622Z,29.50
2018-08-22T18:38:22.115Z,29.40
2018-08-22T18:41:01.950Z,29.40
2018-08-22T18:43:30.444Z,29.40
2018-08-22T18:46:07.581Z,29.40
2018-08-22T18:48:36.457Z,29.30
2018-08-22T18:51:05.353Z,29.30
2018-08-22T18:53:33.823Z,29.30
2018-08-22T18:56:11.861Z,29.30
2018-08-22T18:58:40.630Z,29.30
2018-08-22T19:01:09.159Z,29.20
2018-08-22T19:03:37.680Z,29.20
2018-08-22T19:06:06.710Z,29.20
2018-08-22T19:08:37.111Z,29.10
2018-08-22T19:11:06.003Z,29.10
2018-08-22T19:13:37.373Z,29.10
2018-08-22T19:16:08.502Z,29.10
2018-08-22T19:18:37.182Z,29.00
2018-08-22T19:21:08.956Z,29.00
2018-08-22T19:23:37.430Z,29.00
2018-08-22T19:26:06.941Z,29.00
2018-08-22T19:28:53.033Z,28.90
2018-08-22T19:31:21.614Z,28.90
2018-08-22T19:33:50.422Z,28.90
2018-08-22T19:36:18.969Z,28.90
2018-08-22T19:38:47.505Z,28.80
2018-08-22T19:41:25.477Z,28.80
2018-08-22T19:43:55.019Z,28.80
2018-08-22T19:46:23.773Z,28.80
2018-08-22T19:48:52.825Z,28.70
2018-08-22T19:51:21.670Z,28.70
2018-08-22T19:53:57.334Z,28.70
2018-08-22T19:56:26.712Z,28.60
2018-08-22T19:58:55.165Z,28.60
2018-08-22T20:01:23.721Z,28.60
2018-08-22T20:03:53.237Z,28.60
2018-08-22T20:06:22.494Z,28.50
2018-08-22T20:08:53.516Z,28.50
2018-08-22T20:11:22.346Z,28.50
2018-08-22T20:13:55.466Z,28.40
2018-08-22T20:16:24.512Z,28.40
2018-08-22T20:18:55.438Z,28.40
2018-08-22T20:21:28.237Z,28.40
2018-08-22T20:23:56.952Z,28.30
2018-08-22T20:26:26.342Z,28.30
2018-08-22T20:28:59.091Z,28.30
2018-08-22T20:31:27.646Z,28.30
2018-08-22T20:34:08.938Z,28.20
2018-08-22T20:36:37.695Z,28.20
2018-08-22T20:39:11.274Z,28.20
2018-08-22T20:41:40.671Z,28.20
2018-08-22T20:44:18.042Z,28.10
2018-08-22T20:46:47.759Z,28.10
2018-08-22T20:49:18.258Z,28.10
2018-08-22T20:51:47.095Z,28.10
2018-08-22T20:54:22.138Z,28.00
2018-08-22T20:56:56.029Z,28.00
2018-08-22T20:59:24.583Z,28.00
2018-08-22T21:01:58.579Z,27.90
2018-08-22T21:04:27.178Z,27.90
2018-08-22T21:06:55.699Z,27.90
2018-08-22T21:09:24.256Z,27.80
2018-08-22T21:11:56.215Z,27.80
2018-08-22T21:14:25.841Z,27.80
2018-08-22T21:16:54.353Z,27.80
2018-08-22T21:19:22.901Z,27.80
2018-08-22T21:21:51.415Z,27.70
2018-08-22T21:24:20.003Z,27.70
2018-08-22T21:26:48.555Z,27.70
2018-08-22T21:29:17.070Z,27.70
2018-08-22T21:31:45.553Z,27.60
2018-08-22T21:34:19.556Z,27.60
2018-08-22T21:36:48.093Z,27.60
2018-08-22T21:39:21.989Z,27.50
2018-08-22T21:41:50.593Z,27.50
2018-08-22T21:44:20.425Z,27.50
2018-08-22T21:46:58.110Z,27.50
2018-08-22T21:49:27.017Z,27.40
2018-08-22T21:51:59.642Z,27.40
2018-08-22T21:54:28.662Z,27.40
2018-08-22T21:56:57.144Z,27.30
2018-08-22T21:59:25.762Z,27.30
2018-08-22T22:01:59.550Z,27.30
2018-08-22T22:04:34.003Z,27.20
2018-08-22T22:07:03.680Z,27.20
2018-08-22T22:09:32.205Z,27.20
2018-08-22T22:12:01.464Z,27.20
2018-08-22T22:14:34.927Z,27.20
2018-08-22T22:17:04.293Z,27.10
2018-08-22T22:19:33.797Z,27.10
2018-08-22T22:22:03.070Z,27.10
2018-08-22T22:24:31.635Z,27.10
2018-08-22T22:27:00.549Z,27.10
2018-08-22T22:29:31.541Z,27.00
2018-08-22T22:32:00.075Z,27.00
2018-08-22T22:34:28.639Z,27.00
2018-08-22T22:36:57.174Z,26.90
2018-08-22T22:39:43.874Z,26.90
2018-08-22T22:42:18.050Z,26.90
2018-08-22T22:44:50.497Z,26.90
2018-08-22T22:47:24.243Z,26.90
2018-08-22T22:49:53.061Z,26.80
2018-08-22T22:52:26.855Z,26.80
2018-08-22T22:54:56.685Z,26.80
2018-08-22T22:57:25.541Z,26.80
2018-08-22T22:59:54.561Z,26.80
2018-08-22T23:02:25.678Z,26.70
2018-08-22T23:04:55.318Z,26.70
2018-08-22T23:07:28.218Z,26.70
2018-08-22T23:09:57.999Z,26.70
2018-08-22T23:12:30.939Z,26.60
2018-08-22T23:14:59.503Z,26.60
2018-08-22T23:17:28.024Z,26.60
2018-08-22T23:20:13.310Z,26.60
2018-08-22T23:22:41.878Z,26.50
2018-08-22T23:25:11.326Z,26.50
2018-08-22T23:27:40.709Z,26.50
2018-08-22T23:30:09.842Z,26.50
2018-08-22T23:32:38.876Z,26.50
2018-08-22T23:35:20.705Z,26.40
2018-08-22T23:37:53.275Z,26.40
2018-08-22T23:40:23.121Z,26.40
2018-08-22T23:42:51.994Z,26.30
2018-08-22T23:45:21.620Z,26.30
2018-08-22T23:47:50.388Z,26.30
2018-08-22T23:50:18.976Z,26.30
2018-08-22T23:52:48.528Z,26.30
2018-08-22T23:55:18.118Z,26.30
2018-08-22T23:57:47.917Z,26.20
